Time;durP1;ratioP1;P1;durP2;ratioP2;P2;SDS_P1;SDS_P2;PMS_P1;PMS_P2;Temp;Humidity;BMP_temperature;BMP_pressure;BME280_temperature;BME280_humidity;BME280_pressure;Samples;Min_cycle;Max_cycle;Signal;HPM_P1;HPM_P2
2021/08/24 00:02:08;;;;;;;7.65;3.10;;;;;;;14.15;67.41;100187.72;5030309;28;20033;-57
2021/08/24 00:04:33;;;;;;;6.07;2.90;;;;;;;14.13;67.44;100187.00;5030335;28;20139;-56
2021/08/24 00:06:59;;;;;;;5.35;3.00;;;;;;;14.11;67.40;100183.59;5030103;28;20503;-57
2021/08/24 00:09:24;;;;;;;7.82;3.20;;;;;;;14.10;67.77;100178.34;5030354;28;20030;-56
2021/08/24 00:11:50;;;;;;;7.07;3.08;;;;;;;14.07;67.83;100182.16;5030752;28;20030;-68
2021/08/24 00:14:16;;;;;;;4.72;2.75;;;;;;;14.05;67.60;100190.38;5034282;28;20029;-55
2021/08/24 00:16:41;;;;;;;5.93;3.13;;;;;;;14.04;67.43;100193.22;5034385;28;20078;-55
2021/08/24 00:19:09;;;;;;;4.60;3.17;;;;;;;14.05;67.94;100198.44;5034299;28;20025;-55
2021/08/24 00:21:36;;;;;;;7.10;3.00;;;;;;;13.91;68.04;100180.84;5034019;28;20025;-56
2021/08/24 00:24:03;;;;;;;5.38;2.70;;;;;;;13.98;68.01;100193.75;5050517;28;20452;-61
2021/08/24 00:26:28;;;;;;;7.53;3.47;;;;;;;13.96;68.41;100190.34;5054138;28;20025;-55
2021/08/24 00:28:54;;;;;;;10.45;3.53;;;;;;;13.93;68.43;100189.63;5053829;28;20028;-55
2021/08/24 00:31:19;;;;;;;7.72;3.20;;;;;;;13.98;68.65;100204.50;5054545;28;20132;-59
2021/08/24 00:33:45;;;;;;;4.75;3.10;;;;;;;13.92;68.55;100198.69;5054169;28;20045;-57
2021/08/24 00:36:15;;;;;;;9.05;3.28;;;;;;;14.01;68.51;100209.66;5053887;28;20841;-57
2021/08/24 00:38:42;;;;;;;5.95;3.10;;;;;;;13.91;68.73;100201.53;5052919;28;20025;-53
2021/08/24 00:41:08;;;;;;;7.03;3.45;;;;;;;13.96;68.69;100201.09;5049138;28;20041;-59
2021/08/24 00:43:37;;;;;;;8.60;3.30;;;;;;;13.98;68.66;100204.50;5034068;28;20032;-55
2021/08/24 00:46:34;;;;;;;8.98;3.33;;;;;;;14.04;68.77;100198.59;5033833;28;20056;-56
2021/08/24 00:49:04;;;;;;;6.90;3.50;;;;;;;14.00;68.59;100197.19;5034209;28;20155;-53
2021/08/24 00:51:34;;;;;;;8.10;3.55;;;;;;;13.85;68.95;100188.59;5033309;28;20026;-55
2021/08/24 00:53:59;;;;;;;8.30;3.72;;;;;;;13.89;69.11;100198.97;5033774;28;20083;-55
2021/08/24 00:56:25;;;;;;;6.90;3.10;;;;;;;13.87;69.51;100186.66;5033694;28;20028;-58
2021/08/24 00:58:51;;;;;;;6.28;3.08;;;;;;;13.84;69.55;100197.66;5034075;28;20025;-56
2021/08/24 01:01:16;;;;;;;7.65;3.38;;;;;;;13.81;69.84;100195.25;5033562;28;20163;-56
2021/08/24 01:03:45;;;;;;;10.73;3.85;;;;;;;13.80;69.74;100190.84;5033622;28;20115;-58
2021/08/24 01:06:40;;;;;;;8.07;3.17;;;;;;;13.94;69.22;100195.88;5033950;28;20128;-55
2021/08/24 01:09:14;;;;;;;9.65;3.10;;;;;;;13.89;69.47;100193.59;5033259;28;20042;-52
2021/08/24 01:12:01;;;;;;;8.98;3.00;;;;;;;13.89;69.42;100198.97;5032904;28;20044;-59
2021/08/24 01:14:35;;;;;;;5.70;3.05;;;;;;;13.86;69.81;100195.69;5033613;28;20056;-56
2021/08/24 01:17:06;;;;;;;5.03;3.10;;;;;;;13.82;70.01;100199.66;5033959;28;20480;-53
2021/08/24 01:19:34;;;;;;;7.50;3.25;;;;;;;13.76;70.28;100190.28;5032963;28;20469;-58
2021/08/24 01:22:38;;;;;;;7.13;3.00;;;;;;;13.88;69.93;100197.25;5032895;28;20490;-52
2021/08/24 01:25:29;;;;;;;6.45;3.05;;;;;;;13.86;69.80;100196.56;5033483;28;20569;-56
2021/08/24 01:28:20;;;;;;;7.75;3.13;;;;;;;13.90;69.75;100197.97;5033328;28;20478;-55
2021/08/24 01:31:04;;;;;;;7.13;2.40;;;;;;;13.90;69.89;100194.44;5032830;28;20052;-55
2021/08/24 01:33:43;;;;;;;6.22;2.70;;;;;;;13.83;70.09;100190.59;5033147;28;20056;-55
2021/08/24 01:36:20;;;;;;;6.88;2.83;;;;;;;13.83;70.56;100196.84;5033505;28;20036;-54
2021/08/24 01:38:58;;;;;;;5.40;3.28;;;;;;;13.79;70.45;100200.78;5032801;28;20429;-55
2021/08/24 01:41:23;;;;;;;8.85;2.90;;;;;;;13.71;71.03;100192.53;5032963;28;20029;-54
2021/08/24 01:44:12;;;;;;;5.50;2.90;;;;;;;13.69;71.15;100195.38;5033012;28;20055;-56
2021/08/24 01:46:59;;;;;;;6.13;2.97;;;;;;;13.80;70.80;100191.72;5033160;28;20045;-56
2021/08/24 01:49:35;;;;;;;7.10;3.00;;;;;;;13.74;70.65;100185.03;5032764;28;20022;-59
2021/08/24 01:52:24;;;;;;;6.45;2.70;;;;;;;13.72;70.88;100192.41;5045565;28;20055;-56
2021/08/24 01:54:57;;;;;;;6.55;3.03;;;;;;;13.73;70.85;100190.53;5052831;28;20044;-55
2021/08/24 01:57:34;;;;;;;7.25;2.70;;;;;;;13.83;70.68;100186.06;5052974;28;20358;-56
2021/08/24 02:00:07;;;;;;;6.43;3.10;;;;;;;13.87;70.47;100186.66;5052227;28;20033;-58
2021/08/24 02:02:46;;;;;;;8.40;3.10;;;;;;;14.00;69.97;100189.09;5052166;28;20404;-55
2021/08/24 02:05:14;;;;;;;5.53;2.88;;;;;;;13.96;70.03;100184.97;5052162;28;20158;-54
2021/08/24 02:07:42;;;;;;;6.07;2.70;;;;;;;13.97;70.15;100184.84;5052600;28;20112;-56
2021/08/24 02:10:16;;;;;;;6.38;2.72;;;;;;;14.01;69.96;100174.66;5052005;28;20472;-56
2021/08/24 02:12:45;;;;;;;4.15;2.83;;;;;;;14.01;69.89;100177.34;5052548;28;20068;-56
2021/08/24 02:15:11;;;;;;;5.32;2.83;;;;;;;13.90;70.13;100168.38;5052258;28;20371;-55
2021/08/24 02:17:42;;;;;;;6.55;2.88;;;;;;;13.96;70.21;100180.44;5051874;28;20029;-55
2021/08/24 02:20:25;;;;;;;7.68;3.03;;;;;;;14.03;69.94;100180.75;5052197;28;20033;-57
2021/08/24 02:22:55;;;;;;;11.88;3.72;;;;;;;13.97;70.23;100186.66;5045116;28;20034;-54
2021/08/24 02:25:25;;;;;;;5.55;3.08;;;;;;;13.94;70.47;100187.81;5031987;28;20037;-55
2021/08/24 02:28:02;;;;;;;7.45;3.20;;;;;;;13.93;70.38;100181.56;5032260;28;20519;-51
2021/08/24 02:30:31;;;;;;;9.73;2.90;;;;;;;13.88;70.47;100186.50;5031606;28;20073;-60
2021/08/24 02:32:58;;;;;;;6.78;3.17;;;;;;;13.85;70.45;100184.09;5031672;28;20512;-65
2021/08/24 02:35:45;;;;;;;8.57;3.38;;;;;;;13.96;70.59;100193.91;5032017;28;20033;-54
2021/08/24 02:38:15;;;;;;;6.38;2.92;;;;;;;13.87;70.69;100183.97;5031429;28;20029;-51
2021/08/24 02:40:52;;;;;;;7.60;3.10;;;;;;;13.83;70.81;100175.31;5031622;28;20044;-53
2021/08/24 02:43:55;;;;;;;9.52;2.95;;;;;;;14.01;70.23;100188.13;5032239;28;20531;-57
2021/08/24 02:46:27;;;;;;;6.65;2.97;;;;;;;13.97;70.20;100192.91;5031302;28;20064;-56
2021/08/24 02:48:57;;;;;;;4.28;3.05;;;;;;;13.96;70.18;100195.72;5031258;28;20029;-53
2021/08/24 02:51:23;;;;;;;6.20;3.13;;;;;;;13.95;70.02;100196.72;5031722;28;20025;-54
2021/08/24 02:54:00;;;;;;;6.00;3.03;;;;;;;14.14;69.87;100199.47;5031832;28;20116;-59
2021/08/24 02:56:26;;;;;;;5.18;2.85;;;;;;;13.99;69.36;100173.94;5031689;28;20033;-53
2021/08/24 02:58:51;;;;;;;4.20;2.92;;;;;;;14.15;69.17;100194.94;5031245;28;20032;-53
2021/08/24 03:01:17;;;;;;;6.50;3.13;;;;;;;14.19;68.88;100186.44;5031562;28;20033;-51
2021/08/24 03:03:42;;;;;;;6.70;3.42;;;;;;;14.25;68.72;100193.13;5031637;28;20029;-56
2021/08/24 03:06:08;;;;;;;6.85;3.40;;;;;;;14.30;68.44;100192.72;5030815;28;20037;-55
2021/08/24 03:08:33;;;;;;;4.25;3.13;;;;;;;14.37;68.28;100191.16;5031164;28;20025;-50
2021/08/24 03:11:00;;;;;;;11.48;3.30;;;;;;;14.43;68.02;100192.44;5031886;28;20033;-64
2021/08/24 03:13:32;;;;;;;6.82;3.03;;;;;;;14.52;67.58;100199.66;5031674;28;20326;-58
2021/08/24 03:16:10;;;;;;;5.15;3.25;;;;;;;14.58;67.51;100201.78;5031635;28;20031;-54
2021/08/24 03:18:46;;;;;;;5.40;2.97;;;;;;;14.62;67.00;100196.97;5031125;28;20033;-56
2021/08/24 03:21:17;;;;;;;4.32;3.00;;;;;;;14.66;66.73;100198.41;5031456;28;20466;-57
2021/08/24 03:23:44;;;;;;;7.95;3.25;;;;;;;14.69;66.43;100199.97;5044824;28;20128;-57
2021/08/24 03:26:11;;;;;;;6.93;3.35;;;;;;;14.74;66.28;100206.69;5050793;28;20028;-55
2021/08/24 03:28:41;;;;;;;4.13;3.08;;;;;;;14.86;65.82;100206.53;5051010;28;20372;-52
2021/08/24 03:31:07;;;;;;;7.10;3.50;;;;;;;14.93;65.58;100203.13;5050986;28;20433;-53
2021/08/24 03:33:33;;;;;;;11.90;3.67;;;;;;;15.09;64.81;100199.00;5050673;28;20102;-53
2021/08/24 03:35:59;;;;;;;8.15;3.40;;;;;;;15.31;64.16;100195.09;5051116;28;20466;-62
2021/08/24 03:38:24;;;;;;;9.57;3.33;;;;;;;15.74;62.81;100202.78;5050743;28;20029;-52
2021/08/24 03:40:49;;;;;;;7.80;2.90;;;;;;;16.57;60.12;100199.22;5050842;28;20087;-51
2021/08/24 03:43:15;;;;;;;6.65;3.20;;;;;;;17.76;56.50;100204.34;5050423;28;20150;-51
2021/08/24 03:45:40;;;;;;;5.25;3.17;;;;;;;18.26;54.51;100204.56;5050402;28;20033;-51
2021/08/24 03:48:07;;;;;;;7.90;3.10;;;;;;;18.53;53.87;100208.88;5049781;28;20107;-55
2021/08/24 03:50:33;;;;;;;6.65;2.90;;;;;;;19.39;50.93;100202.28;5049395;28;20043;-53
2021/08/24 03:52:59;;;;;;;6.25;2.85;;;;;;;19.67;50.46;100200.03;5030371;28;20137;-68
2021/08/24 03:55:25;;;;;;;7.65;2.90;;;;;;;19.71;49.72;100195.94;5030798;28;20033;-54
2021/08/24 03:57:50;;;;;;;6.00;2.97;;;;;;;19.83;49.25;100209.97;5030357;28;20397;-58
2021/08/24 04:00:16;;;;;;;8.45;3.38;;;;;;;19.87;49.47;100205.88;5030056;28;20053;-53
2021/08/24 04:02:42;;;;;;;9.48;3.50;;;;;;;19.88;49.28;100210.31;5030278;28;20029;-56
2021/08/24 04:05:09;;;;;;;7.32;3.47;;;;;;;21.00;46.50;100202.03;5029116;28;20424;-54
2021/08/24 04:07:34;;;;;;;8.75;3.30;;;;;;;22.58;42.54;100203.81;5030231;28;20381;-55
2021/08/24 04:10:00;;;;;;;4.63;2.92;;;;;;;22.92;41.02;100199.56;5030355;28;20455;-58
2021/08/24 04:12:26;;;;;;;8.20;3.50;;;;;;;22.71;41.66;100203.13;5030387;28;20381;-52
2021/08/24 04:14:51;;;;;;;7.90;3.47;;;;;;;23.65;39.85;100202.03;5030414;28;20363;-52
2021/08/24 04:17:18;;;;;;;5.47;3.50;;;;;;;24.97;37.02;100205.66;5030393;28;20030;-56
2021/08/24 04:19:43;;;;;;;6.88;3.55;;;;;;;26.20;34.31;100197.88;5029953;28;20029;-55
2021/08/24 04:22:12;;;;;;;6.18;4.03;;;;;;;27.08;33.31;100203.66;5030863;28;20036;-55
2021/08/24 04:24:38;;;;;;;7.47;3.90;;;;;;;27.87;31.47;100177.50;5050036;28;20391;-57
2021/08/24 04:27:04;;;;;;;11.30;3.60;;;;;;;28.55;30.12;100199.50;5049734;28;20032;-57
2021/08/24 04:29:30;;;;;;;4.45;2.83;;;;;;;28.18;30.14;100196.84;5050143;28;20033;-56
2021/08/24 04:31:56;;;;;;;6.75;3.28;;;;;;;27.96;30.61;100204.72;5050722;28;20052;-56
2021/08/24 04:34:22;;;;;;;7.38;3.13;;;;;;;28.50;29.68;100199.38;5049460;28;20405;-57
2021/08/24 04:36:48;;;;;;;9.18;3.33;;;;;;;28.94;28.65;100204.69;5050026;28;20032;-55
2021/08/24 04:39:13;;;;;;;4.00;3.00;;;;;;;29.87;27.09;100194.97;5050549;28;20021;-55
2021/08/24 04:41:39;;;;;;;4.25;3.10;;;;;;;30.89;25.32;100194.47;5048553;28;20037;-61
2021/08/24 04:44:04;;;;;;;5.82;2.88;;;;;;;31.70;24.54;100189.63;5049269;28;20034;-53
2021/08/24 04:46:30;;;;;;;8.73;3.05;;;;;;;32.36;23.65;100186.03;5050143;28;20107;-57
2021/08/24 04:48:55;;;;;;;7.63;3.55;;;;;;;33.05;22.35;100186.41;5049401;28;20108;-54
2021/08/24 04:51:21;;;;;;;3.85;2.95;;;;;;;33.68;21.63;100187.66;5041124;28;20454;-54
2021/08/24 04:53:47;;;;;;;3.95;2.38;;;;;;;34.11;20.66;100182.88;5029344;28;20064;-56
2021/08/24 04:56:13;;;;;;;3.92;2.80;;;;;;;34.72;20.12;100192.44;5030237;28;20068;-57
2021/08/24 04:58:39;;;;;;;7.70;2.88;;;;;;;35.26;19.75;100195.81;5031859;28;20132;-57
2021/08/24 05:01:04;;;;;;;6.07;3.30;;;;;;;35.82;19.36;100202.34;5033164;28;20479;-56
2021/08/24 05:03:31;;;;;;;11.32;3.00;;;;;;;36.39;18.42;100202.09;5033154;28;20079;-62
2021/08/24 05:05:56;;;;;;;7.78;2.88;;;;;;;36.65;17.54;100176.03;5034463;28;20029;-54
2021/08/24 05:08:22;;;;;;;4.60;2.53;;;;;;;37.38;17.50;100193.78;5033347;28;20029;-55
2021/08/24 05:10:47;;;;;;;5.22;2.53;;;;;;;37.86;16.55;100190.22;5032763;28;20057;-56
2021/08/24 05:13:13;;;;;;;7.57;2.50;;;;;;;38.46;16.07;100188.00;5032887;28;20116;-57
2021/08/24 05:15:38;;;;;;;5.32;2.60;;;;;;;39.09;15.20;100185.06;5033396;28;20033;-55
2021/08/24 05:18:04;;;;;;;5.53;2.55;;;;;;;39.53;14.73;100197.66;5033381;28;20462;-55
2021/08/24 05:20:29;;;;;;;4.22;2.40;;;;;;;39.83;14.49;100177.78;5032836;28;20037;-62
2021/08/24 05:22:56;;;;;;;4.57;2.50;;;;;;;39.84;14.56;100190.66;5039255;28;20100;-56
2021/08/24 05:25:22;;;;;;;4.63;1.92;;;;;;;39.97;14.01;100170.19;5053604;28;20051;-57
2021/08/24 05:27:48;;;;;;;7.05;2.30;;;;;;;40.51;13.29;100168.69;5053340;28;20029;-57
2021/08/24 05:30:17;;;;;;;5.47;2.40;;;;;;;41.37;13.37;100202.47;5052406;28;20037;-55
2021/08/24 05:32:43;;;;;;;5.63;2.20;;;;;;;41.79;12.31;100177.69;5052359;28;20044;-55
2021/08/24 05:35:08;;;;;;;3.08;2.20;;;;;;;42.18;12.20;100173.09;5052776;28;20036;-61
2021/08/24 05:37:34;;;;;;;3.28;1.77;;;;;;;41.12;12.91;100166.31;5053108;28;20024;-54
2021/08/24 05:39:59;;;;;;;6.20;2.00;;;;;;;41.28;13.03;100175.16;5052701;28;20388;-66
2021/08/24 05:42:25;;;;;;;2.20;1.65;;;;;;;41.14;13.08;100174.41;5052791;28;20460;-54
2021/08/24 05:44:51;;;;;;;6.03;1.90;;;;;;;40.01;13.38;100179.63;5052767;28;20037;-54
2021/08/24 05:47:16;;;;;;;3.42;1.95;;;;;;;40.58;13.01;100166.28;5052938;28;20079;-56
2021/08/24 05:49:42;;;;;;;2.80;2.10;;;;;;;42.00;12.41;100166.63;5052241;28;20457;-56
2021/08/24 05:52:11;;;;;;;3.58;2.10;;;;;;;42.83;11.73;100169.63;5038179;28;20033;-57
2021/08/24 05:54:37;;;;;;;3.05;2.13;;;;;;;41.55;12.69;100173.28;5031962;28;20033;-57
2021/08/24 05:57:04;;;;;;;3.60;1.80;;;;;;;39.02;14.74;100152.69;5032027;28;20112;-60
2021/08/24 05:59:31;;;;;;;5.35;1.98;;;;;;;36.59;16.81;100169.66;5032564;28;20033;-62
2021/08/24 06:01:57;;;;;;;4.20;2.00;;;;;;;34.09;19.30;100168.41;5031860;28;20107;-58
2021/08/24 06:04:23;;;;;;;7.03;1.55;;;;;;;32.12;21.81;100169.69;5031947;28;20438;-54
2021/08/24 06:06:48;;;;;;;6.22;1.48;;;;;;;30.55;23.55;100170.38;5031923;28;20029;-58
2021/08/24 06:09:14;;;;;;;7.05;1.52;;;;;;;29.47;25.27;100177.28;5031868;28;20052;-57
2021/08/24 06:11:47;;;;;;;3.35;1.52;;;;;;;28.85;26.25;100186.81;5032183;28;20038;-54
2021/08/24 06:14:13;;;;;;;5.50;1.70;;;;;;;28.33;27.17;100182.69;5031376;28;20370;-59
2021/08/24 06:16:40;;;;;;;5.95;1.38;;;;;;;28.44;27.51;100184.63;5031766;28;20095;-52
2021/08/24 06:19:06;;;;;;;5.43;1.77;;;;;;;31.01;24.17;100170.34;5032254;28;20083;-56
2021/08/24 06:21:34;;;;;;;4.10;1.52;;;;;;;34.72;19.70;100170.19;5030325;28;20021;-57
2021/08/24 06:24:01;;;;;;;4.45;1.63;;;;;;;37.72;16.30;100175.28;5047728;28;20059;-67
2021/08/24 06:26:28;;;;;;;4.25;1.70;;;;;;;39.64;14.47;100172.28;5052489;28;20037;-57
2021/08/24 06:28:54;;;;;;;3.33;1.83;;;;;;;41.22;12.87;100158.78;5051509;28;20029;-55
2021/08/24 06:31:22;;;;;;;3.33;1.90;;;;;;;42.06;12.42;100156.09;5051423;28;20139;-56
2021/08/24 06:33:48;;;;;;;5.95;1.95;;;;;;;43.05;11.70;100164.13;5051787;28;20106;-54
2021/08/24 06:36:14;;;;;;;3.42;1.80;;;;;;;43.77;11.07;100175.59;5051479;28;20037;-54
2021/08/24 06:38:41;;;;;;;2.38;2.00;;;;;;;44.69;10.04;100184.38;5051171;28;20063;-57
2021/08/24 06:41:07;;;;;;;5.57;1.80;;;;;;;45.66;8.92;100173.97;5051196;28;20416;-57
2021/08/24 06:43:32;;;;;;;3.28;1.60;;;;;;;46.40;8.24;100173.84;5051806;28;20029;-58
2021/08/24 06:45:58;;;;;;;2.88;1.70;;;;;;;46.89;8.03;100173.97;5051421;28;20104;-58
2021/08/24 06:48:24;;;;;;;4.70;1.88;;;;;;;47.13;7.62;100170.16;5051354;28;20122;-58
2021/08/24 06:50:49;;;;;;;5.30;2.15;;;;;;;47.51;7.47;100174.38;5041903;28;20210;-59
2021/08/24 06:53:15;;;;;;;6.95;1.90;;;;;;;47.81;7.08;100171.06;5038610;28;20025;-60
2021/08/24 06:55:41;;;;;;;4.30;1.85;;;;;;;48.23;6.73;100180.91;5040066;28;20053;-59
2021/08/24 06:58:09;;;;;;;3.97;2.30;;;;;;;48.95;6.82;100183.56;5040699;28;20041;-61
2021/08/24 07:00:36;;;;;;;3.53;2.25;;;;;;;49.27;6.54;100169.09;5039344;28;20022;-60
2021/08/24 07:03:01;;;;;;;5.80;2.50;;;;;;;49.67;5.83;100181.09;5040381;28;20025;-59
2021/08/24 07:05:29;;;;;;;4.15;1.80;;;;;;;50.25;5.71;100176.25;5040782;28;20091;-60
2021/08/24 07:07:56;;;;;;;3.42;1.77;;;;;;;50.31;5.35;100169.00;5036075;28;20052;-59
2021/08/24 07:10:23;;;;;;;2.92;1.73;;;;;;;50.48;5.12;100173.25;5031242;28;20041;-58
2021/08/24 07:12:49;;;;;;;2.55;1.70;;;;;;;50.15;5.39;100168.34;5031164;28;20033;-59
2021/08/24 07:15:18;;;;;;;4.50;1.90;;;;;;;50.03;5.97;100169.44;5031085;28;20044;-58
2021/08/24 07:17:43;;;;;;;4.03;1.92;;;;;;;50.24;5.53;100168.94;5030896;28;20037;-59
2021/08/24 07:20:12;;;;;;;2.67;2.08;;;;;;;50.98;5.13;100178.72;5031266;28;20359;-59
2021/08/24 07:22:38;;;;;;;4.88;2.08;;;;;;;50.55;5.18;100161.97;5030968;28;20527;-59
2021/08/24 07:25:06;;;;;;;4.75;2.33;;;;;;;50.72;5.16;100164.59;5030933;28;20029;-61
2021/08/24 07:27:32;;;;;;;4.05;2.22;;;;;;;50.94;4.90;100160.75;5030804;28;20029;-61
2021/08/24 07:29:57;;;;;;;2.38;2.00;;;;;;;51.23;4.43;100160.16;5031038;28;20422;-55
2021/08/24 07:32:23;;;;;;;3.33;2.15;;;;;;;49.79;5.36;100155.28;5031034;28;20355;-59
2021/08/24 07:34:48;;;;;;;2.78;2.20;;;;;;;49.89;5.44;100159.50;5030987;28;20103;-61
2021/08/24 07:37:14;;;;;;;3.53;2.30;;;;;;;50.43;4.82;100162.22;5032315;28;20565;-63
2021/08/24 07:39:39;;;;;;;2.63;2.17;;;;;;;50.95;4.52;100167.28;5050859;28;20033;-55
2021/08/24 07:42:05;;;;;;;2.95;2.70;;;;;;;49.64;5.26;100170.50;5030576;28;20059;-60
2021/08/24 07:44:33;;;;;;;2.00;1.90;;;;;;;45.75;7.09;100159.72;5048240;28;20044;-59
2021/08/24 07:47:00;;;;;;;3.65;1.50;;;;;;;41.76;9.46;100172.72;5048679;28;20328;-58
2021/08/24 07:49:26;;;;;;;2.30;1.58;;;;;;;38.56;12.25;100170.22;5049040;28;20036;-56
2021/08/24 07:51:54;;;;;;;2.08;1.52;;;;;;;36.03;14.56;100169.69;5048740;28;20029;-59
2021/08/24 07:54:21;;;;;;;4.05;1.60;;;;;;;33.87;16.40;100169.44;5046833;28;20087;-64
2021/08/24 07:56:46;;;;;;;3.03;1.80;;;;;;;32.21;17.96;100172.84;5048520;28;20021;-54
2021/08/24 07:59:12;;;;;;;2.28;1.63;;;;;;;33.64;16.79;100166.00;5050823;28;20067;-55
2021/08/24 08:01:37;;;;;;;5.57;2.08;;;;;;;33.47;16.72;100159.78;5050580;28;20033;-57
2021/08/24 08:04:03;;;;;;;2.95;1.80;;;;;;;32.75;17.03;100154.53;5050366;28;20067;-54
2021/08/24 08:06:28;;;;;;;2.25;1.75;;;;;;;33.87;15.46;100140.81;5050984;28;20163;-59
2021/08/24 08:08:53;;;;;;;5.97;2.15;;;;;;;34.31;15.50;100156.25;5050416;28;20112;-56
2021/08/24 08:11:19;;;;;;;2.35;1.88;;;;;;;33.26;17.00;100161.59;5050342;28;20117;-56
2021/08/24 08:13:44;;;;;;;4.78;1.80;;;;;;;32.34;17.76;100155.81;5050636;28;20040;-54
2021/08/24 08:16:10;;;;;;;3.08;1.95;;;;;;;31.61;19.44;100164.31;5049199;28;20040;-57
2021/08/24 08:18:35;;;;;;;4.57;1.42;;;;;;;30.71;20.07;100154.94;5050510;28;20025;-59
2021/08/24 08:21:01;;;;;;;2.15;1.75;;;;;;;29.75;21.39;100150.84;5051234;28;20112;-60
2021/08/24 08:23:26;;;;;;;3.88;1.77;;;;;;;29.03;22.13;100150.03;5050529;28;20469;-58
2021/08/24 08:25:52;;;;;;;2.85;1.63;;;;;;;28.50;23.56;100158.91;5050437;28;20033;-59
2021/08/24 08:28:29;;;;;;;3.80;1.80;;;;;;;27.94;23.89;100144.41;5050537;28;20025;-57
2021/08/24 08:30:55;;;;;;;2.95;1.80;;;;;;;27.50;24.81;100158.25;5050029;28;20430;-50
2021/08/24 08:33:20;;;;;;;3.58;1.73;;;;;;;27.18;25.49;100156.44;5051399;28;20552;-55
2021/08/24 08:35:45;;;;;;;2.65;1.90;;;;;;;26.94;26.33;100156.22;5054089;28;20526;-55
2021/08/24 08:38:11;;;;;;;2.38;1.70;;;;;;;26.74;26.38;100153.59;5054425;28;20034;-58
2021/08/24 08:41:22;;;;;;;4.78;2.20;;;;;;;26.77;25.40;100161.41;5054482;28;20033;-56
2021/08/24 08:44:31;;;;;;;3.30;2.50;;;;;;;26.54;26.21;100164.75;5052618;28;20045;-56
2021/08/24 08:47:32;;;;;;;2.53;2.00;;;;;;;26.57;26.47;100163.47;5052833;28;20049;-56
2021/08/24 08:50:05;;;;;;;3.90;2.17;;;;;;;26.55;26.54;100160.09;5052744;28;20041;-55
2021/08/24 08:52:44;;;;;;;4.13;2.38;;;;;;;26.33;26.67;100152.22;5054076;28;20028;-59
2021/08/24 08:55:27;;;;;;;4.88;2.40;;;;;;;26.45;26.49;100160.59;5054181;28;20029;-65
2021/08/24 08:58:13;;;;;;;3.38;2.50;;;;;;;26.29;26.35;100159.22;5053973;28;20598;-61
2021/08/24 09:00:48;;;;;;;3.78;2.03;;;;;;;26.09;26.77;100160.13;5053972;28;20068;-62
2021/08/24 09:03:23;;;;;;;4.75;2.22;;;;;;;25.69;27.82;100135.59;5053566;28;20043;-62
2021/08/24 09:05:48;;;;;;;3.93;2.20;;;;;;;25.42;28.03;100154.84;5053764;28;20389;-63
2021/08/24 09:08:20;;;;;;;6.25;2.38;;;;;;;25.22;28.03;100158.44;5053906;28;20033;-61
2021/08/24 09:10:56;;;;;;;2.90;2.17;;;;;;;24.96;27.87;100153.81;5053797;28;20025;-61
2021/08/24 09:13:24;;;;;;;4.50;2.20;;;;;;;24.70;28.81;100159.06;5053539;28;20036;-61
2021/08/24 09:15:52;;;;;;;4.80;2.28;;;;;;;24.54;29.90;100167.66;5054028;28;20041;-62
2021/08/24 09:18:52;;;;;;;4.53;2.08;;;;;;;24.55;29.73;100158.41;5053920;28;20032;-64
2021/08/24 09:21:33;;;;;;;4.45;1.92;;;;;;;24.99;29.63;100164.38;5052413;28;20106;-61
2021/08/24 09:24:06;;;;;;;4.40;2.10;;;;;;;25.15;29.50;100157.63;5053288;28;20044;-61
2021/08/24 09:26:31;;;;;;;6.45;2.35;;;;;;;24.68;30.13;100152.94;5053344;28;20024;-63
2021/08/24 09:28:57;;;;;;;2.42;1.75;;;;;;;24.41;30.17;100152.91;5051775;28;20385;-61
2021/08/24 09:31:24;;;;;;;4.00;2.33;;;;;;;24.26;30.03;100141.28;5053207;28;20077;-63
2021/08/24 09:33:50;;;;;;;3.92;2.30;;;;;;;24.41;29.76;100172.06;5053008;28;20049;-63
2021/08/24 09:36:17;;;;;;;6.10;2.17;;;;;;;24.46;30.01;100164.06;5053888;28;20041;-61
2021/08/24 09:38:57;;;;;;;2.92;1.85;;;;;;;24.58;29.57;100166.19;5053312;28;20021;-61
2021/08/24 09:41:28;;;;;;;4.93;2.33;;;;;;;24.47;30.82;100162.16;5052903;28;20354;-62
2021/08/24 09:43:57;;;;;;;4.15;2.10;;;;;;;24.20;31.28;100173.91;5053044;28;20039;-61
2021/08/24 09:46:36;;;;;;;3.63;2.35;;;;;;;24.00;31.69;100162.88;5051700;28;20116;-63
2021/08/24 09:49:06;;;;;;;3.05;1.92;;;;;;;23.83;32.06;100167.81;5053602;28;20029;-61
2021/08/24 09:51:40;;;;;;;4.80;2.10;;;;;;;23.82;32.01;100173.50;5053245;28;20037;-62
2021/08/24 09:54:26;;;;;;;6.80;1.77;;;;;;;23.85;31.86;100165.72;5053119;28;20039;-62
2021/08/24 09:56:55;;;;;;;4.30;2.10;;;;;;;23.89;31.31;100171.63;5052744;28;20040;-61
2021/08/24 09:59:32;;;;;;;3.30;2.03;;;;;;;24.31;30.17;100161.53;5052738;28;20170;-63
2021/08/24 10:01:58;;;;;;;3.88;1.88;;;;;;;24.47;29.67;100160.28;5053483;28;20044;-61
2021/08/24 10:04:24;;;;;;;4.13;1.92;;;;;;;24.66;29.36;100160.53;5052916;28;20033;-62
2021/08/24 10:06:54;;;;;;;3.83;2.58;;;;;;;24.99;28.40;100165.19;5052822;28;20037;-62
2021/08/24 10:09:33;;;;;;;3.92;2.60;;;;;;;25.25;28.39;100159.94;5053298;28;20059;-62
2021/08/24 10:12:23;;;;;;;6.20;2.63;;;;;;;25.62;27.86;100160.28;5052730;28;20115;-60
2021/08/24 10:14:50;;;;;;;9.35;1.92;;;;;;;25.62;27.95;100125.50;5052397;28;20596;-62
2021/08/24 10:17:35;;;;;;;4.68;2.10;;;;;;;26.05;27.19;100156.13;5052869;28;20035;-62
2021/08/24 10:20:20;;;;;;;2.67;2.13;;;;;;;25.81;27.48;100153.06;5052579;28;20025;-62
2021/08/24 10:22:49;;;;;;;4.20;2.45;;;;;;;25.72;25.98;100157.09;5046271;28;20347;-62
2021/08/24 10:25:22;;;;;;;9.23;2.88;;;;;;;25.46;26.50;100151.47;5033038;28;20038;-61
2021/08/24 10:28:11;;;;;;;3.75;2.17;;;;;;;25.30;26.96;100158.22;5032524;28;20497;-62
2021/08/24 10:30:59;;;;;;;5.97;2.30;;;;;;;25.19;26.88;100145.16;5032956;28;20045;-61
2021/08/24 10:33:32;;;;;;;6.60;2.30;;;;;;;25.17;26.33;100148.09;5032928;28;20163;-63
2021/08/24 10:36:12;;;;;;;2.83;2.22;;;;;;;25.13;25.30;100138.63;5032802;28;20549;-61
2021/08/24 10:38:44;;;;;;;2.85;2.00;;;;;;;24.87;25.18;100140.34;5044210;28;20029;-61
2021/08/24 10:41:24;;;;;;;3.45;2.30;;;;;;;24.85;26.07;100138.88;5051829;28;20037;-66
2021/08/24 10:43:53;;;;;;;3.08;2.30;;;;;;;24.66;26.30;100135.88;5051786;28;20052;-64
2021/08/24 10:46:19;;;;;;;3.08;1.75;;;;;;;24.71;26.97;100133.38;5051457;28;20037;-61
2021/08/24 10:48:45;;;;;;;3.92;2.22;;;;;;;24.80;26.62;100131.28;5052084;28;20369;-61
2021/08/24 10:51:31;;;;;;;4.82;2.38;;;;;;;24.97;26.57;100130.88;5052371;28;20033;-62
2021/08/24 10:54:06;;;;;;;;;;;;;;;25.29;25.87;100129.13;5052494;28;20036;-60
2021/08/24 10:56:43;;;;;;;8.73;2.90;;;;;;;24.94;26.79;100132.13;5049839;28;20361;-61
2021/08/24 10:59:46;;;;;;;4.38;3.00;;;;;;;24.92;27.00;100132.31;5051828;28;20066;-62
2021/08/24 11:02:30;;;;;;;3.40;2.22;;;;;;;24.57;27.73;100129.78;5050458;28;20033;-63
2021/08/24 11:05:01;;;;;;;3.17;2.25;;;;;;;24.44;28.29;100135.22;5051501;28;20037;-60
2021/08/24 11:07:54;;;;;;;3.22;2.05;;;;;;;24.40;27.29;100133.94;5051233;28;20103;-62
2021/08/24 11:10:56;;;;;;;2.92;2.28;;;;;;;24.25;27.09;100128.66;5051551;28;20028;-62
2021/08/24 11:13:38;;;;;;;3.58;2.25;;;;;;;24.34;26.82;100130.16;5058040;28;20083;-63
2021/08/24 11:16:22;;;;;;;3.35;2.45;;;;;;;24.56;26.14;100121.75;5051017;28;20029;-60
2021/08/24 11:19:11;;;;;;;4.43;2.80;;;;;;;24.61;25.71;100116.53;5050878;28;20039;-61
2021/08/24 11:22:14;;;;;;;6.95;2.78;;;;;;;24.89;25.86;100118.25;5051640;28;20037;-61
2021/08/24 11:24:57;;;;;;;4.20;2.53;;;;;;;24.99;25.21;100128.75;5030224;28;20041;-62
2021/08/24 11:27:22;;;;;;;6.22;2.50;;;;;;;24.76;25.38;100117.16;5030799;28;20142;-62
2021/08/24 11:29:57;;;;;;;2.92;2.22;;;;;;;24.82;25.73;100118.22;5046170;28;20120;-61
2021/08/24 11:32:33;;;;;;;4.70;1.80;;;;;;;24.99;25.26;100113.16;5031448;28;20116;-61
2021/08/24 11:35:15;;;;;;;4.35;2.15;;;;;;;25.02;26.61;100110.00;5031138;28;20409;-61
2021/08/24 11:37:59;;;;;;;5.78;2.40;;;;;;;24.76;27.32;100106.22;5031096;28;20045;-61
2021/08/24 11:40:55;;;;;;;5.10;2.67;;;;;;;24.64;27.51;100113.38;5030961;28;20115;-62
2021/08/24 11:43:29;;;;;;;3.22;1.92;;;;;;;24.45;27.76;100115.00;5030772;28;20136;-60
2021/08/24 11:45:55;;;;;;;3.50;2.30;;;;;;;24.15;28.13;100112.66;5029714;28;20025;-60